sensor_id;sensor_type;location;lat;lon;timestamp;P1;durP1;ratioP1;P2;durP2;ratioP2
23670;SDS011;12012;51.998;7.614;2023-08-06T00:01:38;13.32;;;9.52;;
23670;SDS011;12012;51.998;7.614;2023-08-06T00:04:04;10.00;;;8.60;;
23670;SDS011;12012;51.998;7.614;2023-08-06T00:06:30;11.13;;;7.65;;
23670;SDS011;12012;51.998;7.614;2023-08-06T00:08:55;10.65;;;8.63;;
23670;SDS011;12012;51.998;7.614;2023-08-06T00:11:21;11.48;;;8.68;;
23670;SDS011;12012;51.998;7.614;2023-08-06T00:13:46;17.85;;;11.88;;
23670;SDS011;12012;51.998;7.614;2023-08-06T00:16:12;11.93;;;9.10;;
23670;SDS011;12012;51.998;7.614;2023-08-06T00:18:38;10.48;;;8.57;;
23670;SDS011;12012;51.998;7.614;2023-08-06T00:21:04;8.02;;;7.22;;
23670;SDS011;12012;51.998;7.614;2023-08-06T00:23:30;10.10;;;8.18;;
23670;SDS011;12012;51.998;7.614;2023-08-06T00:25:56;15.52;;;12.00;;
23670;SDS011;12012;51.998;7.614;2023-08-06T00:28:21;10.63;;;8.10;;
23670;SDS011;12012;51.998;7.614;2023-08-06T00:30:52;12.27;;;10.23;;
23670;SDS011;12012;51.998;7.614;2023-08-06T00:33:21;11.93;;;9.57;;
23670;SDS011;12012;51.998;7.614;2023-08-06T00:35:47;10.70;;;8.43;;
23670;SDS011;12012;51.998;7.614;2023-08-06T00:38:12;8.20;;;7.40;;
23670;SDS011;12012;51.998;7.614;2023-08-06T00:40:38;11.23;;;9.80;;
23670;SDS011;12012;51.998;7.614;2023-08-06T00:43:03;8.73;;;6.85;;
23670;SDS011;12012;51.998;7.614;2023-08-06T00:45:29;14.25;;;10.38;;
23670;SDS011;12012;51.998;7.614;2023-08-06T00:47:58;10.07;;;8.82;;
23670;SDS011;12012;51.998;7.614;2023-08-06T00:50:24;10.40;;;9.30;;
23670;SDS011;12012;51.998;7.614;2023-08-06T00:52:50;11.05;;;7.88;;
23670;SDS011;12012;51.998;7.614;2023-08-06T00:55:16;12.27;;;10.32;;
23670;SDS011;12012;51.998;7.614;2023-08-06T00:57:42;9.15;;;7.65;;
23670;SDS011;12012;51.998;7.614;2023-08-06T01:00:08;11.27;;;7.93;;
23670;SDS011;12012;51.998;7.614;2023-08-06T01:02:34;9.02;;;8.05;;
23670;SDS011;12012;51.998;7.614;2023-08-06T01:05:00;15.13;;;12.27;;
23670;SDS011;12012;51.998;7.614;2023-08-06T01:15:43;11.88;;;10.00;;
23670;SDS011;12012;51.998;7.614;2023-08-06T01:20:50;11.88;;;7.97;;
23670;SDS011;12012;51.998;7.614;2023-08-06T01:23:15;7.00;;;5.68;;
23670;SDS011;12012;51.998;7.614;2023-08-06T01:25:56;9.52;;;8.15;;
23670;SDS011;12012;51.998;7.614;2023-08-06T01:31:18;12.52;;;10.20;;
23670;SDS011;12012;51.998;7.614;2023-08-06T01:33:49;9.13;;;7.05;;
23670;SDS011;12012;51.998;7.614;2023-08-06T01:36:16;8.25;;;6.80;;
23670;SDS011;12012;51.998;7.614;2023-08-06T01:38:43;9.60;;;8.60;;
23670;SDS011;12012;51.998;7.614;2023-08-06T01:41:09;10.20;;;7.78;;
23670;SDS011;12012;51.998;7.614;2023-08-06T01:43:34;6.70;;;6.00;;
23670;SDS011;12012;51.998;7.614;2023-08-06T01:46:00;7.10;;;6.10;;
23670;SDS011;12012;51.998;7.614;2023-08-06T01:48:25;9.70;;;8.57;;
23670;SDS011;12012;51.998;7.614;2023-08-06T01:50:51;8.02;;;6.50;;
23670;SDS011;12012;51.998;7.614;2023-08-06T01:53:16;6.20;;;5.60;;
23670;SDS011;12012;51.998;7.614;2023-08-06T01:55:42;15.35;;;11.02;;
23670;SDS011;12012;51.998;7.614;2023-08-06T01:58:13;11.47;;;10.27;;
23670;SDS011;12012;51.998;7.614;2023-08-06T02:00:39;10.35;;;9.23;;
23670;SDS011;12012;51.998;7.614;2023-08-06T02:03:05;16.02;;;11.98;;
23670;SDS011;12012;51.998;7.614;2023-08-06T02:05:30;6.38;;;5.78;;
23670;SDS011;12012;51.998;7.614;2023-08-06T02:07:56;9.93;;;8.25;;
23670;SDS011;12012;51.998;7.614;2023-08-06T02:10:22;9.63;;;7.97;;
23670;SDS011;12012;51.998;7.614;2023-08-06T02:12:47;10.75;;;8.15;;
23670;SDS011;12012;51.998;7.614;2023-08-06T02:15:13;8.30;;;7.03;;
23670;SDS011;12012;51.998;7.614;2023-08-06T02:17:38;8.32;;;7.00;;
23670;SDS011;12012;51.998;7.614;2023-08-06T02:20:04;9.20;;;8.13;;
23670;SDS011;12012;51.998;7.614;2023-08-06T02:22:30;14.00;;;10.13;;
23670;SDS011;12012;51.998;7.614;2023-08-06T02:24:56;10.68;;;8.20;;
23670;SDS011;12012;51.998;7.614;2023-08-06T02:27:21;10.68;;;8.95;;
23670;SDS011;12012;51.998;7.614;2023-08-06T02:29:47;10.00;;;7.90;;
23670;SDS011;12012;51.998;7.614;2023-08-06T02:32:12;9.40;;;7.55;;
23670;SDS011;12012;51.998;7.614;2023-08-06T02:34:38;10.35;;;8.05;;
23670;SDS011;12012;51.998;7.614;2023-08-06T02:37:04;9.40;;;7.60;;
23670;SDS011;12012;51.998;7.614;2023-08-06T02:39:29;9.80;;;8.32;;
23670;SDS011;12012;51.998;7.614;2023-08-06T02:41:55;9.60;;;6.90;;
23670;SDS011;12012;51.998;7.614;2023-08-06T02:44:20;8.45;;;7.60;;
23670;SDS011;12012;51.998;7.614;2023-08-06T02:46:46;9.55;;;8.43;;
23670;SDS011;12012;51.998;7.614;2023-08-06T02:49:12;8.95;;;7.82;;
23670;SDS011;12012;51.998;7.614;2023-08-06T02:51:37;7.72;;;6.18;;
23670;SDS011;12012;51.998;7.614;2023-08-06T02:54:03;10.65;;;8.68;;
23670;SDS011;12012;51.998;7.614;2023-08-06T02:56:28;10.40;;;8.30;;
23670;SDS011;12012;51.998;7.614;2023-08-06T02:58:54;12.88;;;7.93;;
23670;SDS011;12012;51.998;7.614;2023-08-06T03:01:19;9.98;;;7.57;;
23670;SDS011;12012;51.998;7.614;2023-08-06T03:03:45;13.15;;;10.65;;
23670;SDS011;12012;51.998;7.614;2023-08-06T03:06:10;11.35;;;7.90;;
23670;SDS011;12012;51.998;7.614;2023-08-06T03:08:36;13.10;;;9.27;;
23670;SDS011;12012;51.998;7.614;2023-08-06T03:11:02;11.50;;;8.13;;
23670;SDS011;12012;51.998;7.614;2023-08-06T03:13:27;8.05;;;6.80;;
23670;SDS011;12012;51.998;7.614;2023-08-06T03:15:56;6.93;;;6.18;;
23670;SDS011;12012;51.998;7.614;2023-08-06T03:18:23;11.00;;;8.25;;
23670;SDS011;12012;51.998;7.614;2023-08-06T03:20:50;8.93;;;6.65;;
23670;SDS011;12012;51.998;7.614;2023-08-06T03:23:16;11.20;;;8.43;;
23670;SDS011;12012;51.998;7.614;2023-08-06T03:25:42;6.40;;;5.80;;
23670;SDS011;12012;51.998;7.614;2023-08-06T03:28:08;8.75;;;7.30;;
23670;SDS011;12012;51.998;7.614;2023-08-06T03:30:34;9.68;;;7.03;;
23670;SDS011;12012;51.998;7.614;2023-08-06T03:33:00;7.43;;;5.75;;
23670;SDS011;12012;51.998;7.614;2023-08-06T03:35:25;7.50;;;6.70;;
23670;SDS011;12012;51.998;7.614;2023-08-06T03:37:51;9.05;;;6.25;;
23670;SDS011;12012;51.998;7.614;2023-08-06T03:40:16;7.05;;;6.25;;
23670;SDS011;12012;51.998;7.614;2023-08-06T03:42:42;7.63;;;6.18;;
23670;SDS011;12012;51.998;7.614;2023-08-06T03:45:08;7.80;;;5.40;;
23670;SDS011;12012;51.998;7.614;2023-08-06T03:47:34;7.88;;;7.05;;
23670;SDS011;12012;51.998;7.614;2023-08-06T03:49:59;7.75;;;6.82;;
23670;SDS011;12012;51.998;7.614;2023-08-06T03:52:25;9.10;;;7.20;;
23670;SDS011;12012;51.998;7.614;2023-08-06T03:54:50;10.65;;;8.07;;
23670;SDS011;12012;51.998;7.614;2023-08-06T03:57:16;13.40;;;8.35;;
23670;SDS011;12012;51.998;7.614;2023-08-06T03:59:42;8.27;;;6.53;;
23670;SDS011;12012;51.998;7.614;2023-08-06T04:02:08;8.93;;;6.68;;
23670;SDS011;12012;51.998;7.614;2023-08-06T04:04:33;6.50;;;5.85;;
23670;SDS011;12012;51.998;7.614;2023-08-06T04:06:59;8.55;;;6.05;;
23670;SDS011;12012;51.998;7.614;2023-08-06T04:09:24;6.72;;;6.03;;
23670;SDS011;12012;51.998;7.614;2023-08-06T04:11:50;6.00;;;5.40;;
23670;SDS011;12012;51.998;7.614;2023-08-06T04:14:15;6.40;;;5.80;;
23670;SDS011;12012;51.998;7.614;2023-08-06T04:16:41;8.73;;;6.07;;
23670;SDS011;12012;51.998;7.614;2023-08-06T04:19:07;7.60;;;5.82;;
23670;SDS011;12012;51.998;7.614;2023-08-06T04:21:32;9.35;;;6.60;;
23670;SDS011;12012;51.998;7.614;2023-08-06T04:23:58;8.60;;;5.90;;
23670;SDS011;12012;51.998;7.614;2023-08-06T04:26:24;10.77;;;6.75;;
23670;SDS011;12012;51.998;7.614;2023-08-06T04:28:50;6.15;;;5.55;;
23670;SDS011;12012;51.998;7.614;2023-08-06T04:31:16;8.20;;;7.30;;
23670;SDS011;12012;51.998;7.614;2023-08-06T04:33:41;8.68;;;6.47;;
23670;SDS011;12012;51.998;7.614;2023-08-06T04:36:07;8.13;;;6.32;;
23670;SDS011;12012;51.998;7.614;2023-08-06T04:38:33;11.88;;;7.85;;
23670;SDS011;12012;51.998;7.614;2023-08-06T04:40:59;5.43;;;4.93;;
23670;SDS011;12012;51.998;7.614;2023-08-06T04:43:24;7.78;;;6.20;;
23670;SDS011;12012;51.998;7.614;2023-08-06T04:45:51;7.88;;;6.40;;
23670;SDS011;12012;51.998;7.614;2023-08-06T04:48:19;8.80;;;6.43;;
23670;SDS011;12012;51.998;7.614;2023-08-06T04:50:45;10.38;;;7.93;;
23670;SDS011;12012;51.998;7.614;2023-08-06T04:53:14;8.95;;;5.88;;
23670;SDS011;12012;51.998;7.614;2023-08-06T04:55:40;11.13;;;7.72;;
23670;SDS011;12012;51.998;7.614;2023-08-06T04:58:05;4.85;;;4.35;;
23670;SDS011;12012;51.998;7.614;2023-08-06T05:00:31;9.23;;;7.03;;
23670;SDS011;12012;51.998;7.614;2023-08-06T05:03:01;5.93;;;5.32;;
23670;SDS011;12012;51.998;7.614;2023-08-06T05:05:27;6.57;;;4.90;;
23670;SDS011;12012;51.998;7.614;2023-08-06T05:07:54;6.53;;;5.93;;
23670;SDS011;12012;51.998;7.614;2023-08-06T05:10:21;6.22;;;5.50;;
23670;SDS011;12012;51.998;7.614;2023-08-06T05:12:46;7.80;;;6.25;;
23670;SDS011;12012;51.998;7.614;2023-08-06T05:15:12;8.57;;;5.50;;
23670;SDS011;12012;51.998;7.614;2023-08-06T05:17:38;6.47;;;5.57;;
23670;SDS011;12012;51.998;7.614;2023-08-06T05:20:03;6.47;;;5.28;;
23670;SDS011;12012;51.998;7.614;2023-08-06T05:22:29;6.00;;;5.50;;
23670;SDS011;12012;51.998;7.614;2023-08-06T05:24:55;5.05;;;4.55;;
23670;SDS011;12012;51.998;7.614;2023-08-06T05:27:20;8.30;;;5.22;;
23670;SDS011;12012;51.998;7.614;2023-08-06T05:29:47;6.57;;;5.82;;
23670;SDS011;12012;51.998;7.614;2023-08-06T05:32:13;7.18;;;5.47;;
23670;SDS011;12012;51.998;7.614;2023-08-06T05:34:38;8.98;;;7.30;;
23670;SDS011;12012;51.998;7.614;2023-08-06T05:37:04;10.32;;;5.35;;
23670;SDS011;12012;51.998;7.614;2023-08-06T05:39:30;6.63;;;5.38;;
23670;SDS011;12012;51.998;7.614;2023-08-06T05:41:55;10.50;;;7.05;;
23670;SDS011;12012;51.998;7.614;2023-08-06T05:44:21;7.82;;;6.13;;
23670;SDS011;12012;51.998;7.614;2023-08-06T05:46:48;8.57;;;7.18;;
23670;SDS011;12012;51.998;7.614;2023-08-06T05:49:14;10.85;;;7.18;;
23670;SDS011;12012;51.998;7.614;2023-08-06T05:51:40;6.63;;;6.03;;
23670;SDS011;12012;51.998;7.614;2023-08-06T05:54:05;7.72;;;5.80;;
23670;SDS011;12012;51.998;7.614;2023-08-06T05:56:31;6.75;;;5.40;;
23670;SDS011;12012;51.998;7.614;2023-08-06T05:58:56;9.43;;;5.68;;
23670;SDS011;12012;51.998;7.614;2023-08-06T06:01:22;6.97;;;5.50;;
23670;SDS011;12012;51.998;7.614;2023-08-06T06:03:48;7.20;;;5.45;;
23670;SDS011;12012;51.998;7.614;2023-08-06T06:06:13;6.32;;;5.72;;
23670;SDS011;12012;51.998;7.614;2023-08-06T06:08:39;5.50;;;4.82;;
23670;SDS011;12012;51.998;7.614;2023-08-06T06:11:05;7.18;;;5.68;;
23670;SDS011;12012;51.998;7.614;2023-08-06T06:13:30;5.55;;;5.03;;
23670;SDS011;12012;51.998;7.614;2023-08-06T06:15:56;5.45;;;4.95;;
23670;SDS011;12012;51.998;7.614;2023-08-06T06:18:22;7.65;;;6.47;;
23670;SDS011;12012;51.998;7.614;2023-08-06T06:20:47;6.03;;;5.43;;
23670;SDS011;12012;51.998;7.614;2023-08-06T06:23:13;6.60;;;5.15;;
23670;SDS011;12012;51.998;7.614;2023-08-06T06:25:42;7.38;;;5.22;;
23670;SDS011;12012;51.998;7.614;2023-08-06T06:28:08;8.30;;;6.93;;
23670;SDS011;12012;51.998;7.614;2023-08-06T06:30:34;7.15;;;6.45;;
23670;SDS011;12012;51.998;7.614;2023-08-06T06:32:59;7.50;;;6.13;;
23670;SDS011;12012;51.998;7.614;2023-08-06T06:35:25;5.63;;;5.13;;
23670;SDS011;12012;51.998;7.614;2023-08-06T06:37:51;7.43;;;5.32;;
23670;SDS011;12012;51.998;7.614;2023-08-06T06:40:16;6.07;;;5.40;;
23670;SDS011;12012;51.998;7.614;2023-08-06T06:42:42;5.78;;;5.22;;
23670;SDS011;12012;51.998;7.614;2023-08-06T06:45:08;7.22;;;5.20;;
23670;SDS011;12012;51.998;7.614;2023-08-06T06:47:34;5.85;;;5.28;;
23670;SDS011;12012;51.998;7.614;2023-08-06T06:49:59;8.90;;;5.13;;
23670;SDS011;12012;51.998;7.614;2023-08-06T06:52:25;5.30;;;4.40;;
23670;SDS011;12012;51.998;7.614;2023-08-06T06:54:50;6.38;;;4.60;;
23670;SDS011;12012;51.998;7.614;2023-08-06T06:57:16;5.20;;;4.70;;
23670;SDS011;12012;51.998;7.614;2023-08-06T06:59:42;5.50;;;4.13;;
23670;SDS011;12012;51.998;7.614;2023-08-06T07:02:07;4.53;;;4.13;;
23670;SDS011;12012;51.998;7.614;2023-08-06T07:04:33;5.88;;;4.82;;
23670;SDS011;12012;51.998;7.614;2023-08-06T07:06:58;6.22;;;5.00;;
23670;SDS011;12012;51.998;7.614;2023-08-06T07:09:24;6.95;;;4.22;;
23670;SDS011;12012;51.998;7.614;2023-08-06T07:11:49;5.28;;;4.30;;
23670;SDS011;12012;51.998;7.614;2023-08-06T07:14:15;5.88;;;4.47;;
23670;SDS011;12012;51.998;7.614;2023-08-06T07:16:40;7.85;;;4.78;;
23670;SDS011;12012;51.998;7.614;2023-08-06T07:19:06;7.07;;;5.28;;
23670;SDS011;12012;51.998;7.614;2023-08-06T07:21:31;5.85;;;4.20;;
23670;SDS011;12012;51.998;7.614;2023-08-06T07:23:57;5.60;;;3.63;;
23670;SDS011;12012;51.998;7.614;2023-08-06T07:26:24;6.10;;;4.45;;
23670;SDS011;12012;51.998;7.614;2023-08-06T07:28:50;6.93;;;3.83;;
23670;SDS011;12012;51.998;7.614;2023-08-06T07:31:15;4.65;;;3.65;;
23670;SDS011;12012;51.998;7.614;2023-08-06T07:33:41;6.05;;;4.47;;
23670;SDS011;12012;51.998;7.614;2023-08-06T07:36:13;4.35;;;3.95;;
23670;SDS011;12012;51.998;7.614;2023-08-06T07:38:39;6.03;;;4.03;;
23670;SDS011;12012;51.998;7.614;2023-08-06T07:41:05;3.88;;;3.50;;
23670;SDS011;12012;51.998;7.614;2023-08-06T07:43:31;5.28;;;3.53;;
23670;SDS011;12012;51.998;7.614;2023-08-06T07:46:00;3.38;;;3.08;;
23670;SDS011;12012;51.998;7.614;2023-08-06T07:48:26;4.03;;;3.20;;
23670;SDS011;12012;51.998;7.614;2023-08-06T07:50:53;4.03;;;3.28;;
23670;SDS011;12012;51.998;7.614;2023-08-06T07:53:22;3.83;;;3.50;;
23670;SDS011;12012;51.998;7.614;2023-08-06T07:55:51;5.20;;;3.70;;
23670;SDS011;12012;51.998;7.614;2023-08-06T07:58:18;5.22;;;3.30;;
23670;SDS011;12012;51.998;7.614;2023-08-06T08:00:48;4.03;;;3.15;;
23670;SDS011;12012;51.998;7.614;2023-08-06T08:03:14;6.32;;;3.20;;
23670;SDS011;12012;51.998;7.614;2023-08-06T08:05:41;3.85;;;3.55;;
23670;SDS011;12012;51.998;7.614;2023-08-06T08:08:07;5.43;;;3.50;;
23670;SDS011;12012;51.998;7.614;2023-08-06T08:10:33;4.80;;;3.47;;
23670;SDS011;12012;51.998;7.614;2023-08-06T08:12:59;2.78;;;2.58;;
23670;SDS011;12012;51.998;7.614;2023-08-06T08:15:29;3.10;;;2.50;;
23670;SDS011;12012;51.998;7.614;2023-08-06T08:17:55;3.08;;;2.50;;
23670;SDS011;12012;51.998;7.614;2023-08-06T08:20:21;3.65;;;2.15;;
23670;SDS011;12012;51.998;7.614;2023-08-06T08:22:46;2.33;;;2.13;;
23670;SDS011;12012;51.998;7.614;2023-08-06T08:25:12;4.40;;;2.67;;
23670;SDS011;12012;51.998;7.614;2023-08-06T08:27:38;2.63;;;2.35;;
23670;SDS011;12012;51.998;7.614;2023-08-06T08:30:04;4.20;;;2.30;;
23670;SDS011;12012;51.998;7.614;2023-08-06T08:32:30;5.75;;;2.20;;
23670;SDS011;12012;51.998;7.614;2023-08-06T08:34:56;4.78;;;2.50;;
23670;SDS011;12012;51.998;7.614;2023-08-06T08:37:22;3.35;;;2.20;;
23670;SDS011;12012;51.998;7.614;2023-08-06T08:39:48;3.35;;;1.95;;
23670;SDS011;12012;51.998;7.614;2023-08-06T08:42:14;3.42;;;2.20;;
23670;SDS011;12012;51.998;7.614;2023-08-06T08:44:40;2.95;;;2.47;;
23670;SDS011;12012;51.998;7.614;2023-08-06T08:47:07;2.78;;;2.25;;
23670;SDS011;12012;51.998;7.614;2023-08-06T08:49:35;5.03;;;2.53;;
23670;SDS011;12012;51.998;7.614;2023-08-06T08:52:01;4.00;;;2.47;;
23670;SDS011;12012;51.998;7.614;2023-08-06T08:54:31;3.00;;;2.40;;
23670;SDS011;12012;51.998;7.614;2023-08-06T08:56:58;4.30;;;2.63;;
23670;SDS011;12012;51.998;7.614;2023-08-06T08:59:24;2.35;;;2.15;;
23670;SDS011;12012;51.998;7.614;2023-08-06T09:01:50;2.97;;;2.53;;
23670;SDS011;12012;51.998;7.614;2023-08-06T09:04:18;4.22;;;2.40;;
23670;SDS011;12012;51.998;7.614;2023-08-06T09:06:45;2.92;;;2.10;;
23670;SDS011;12012;51.998;7.614;2023-08-06T09:09:12;2.63;;;2.40;;
23670;SDS011;12012;51.998;7.614;2023-08-06T09:11:45;2.90;;;2.65;;
23670;SDS011;12012;51.998;7.614;2023-08-06T09:14:14;2.75;;;2.22;;
23670;SDS011;12012;51.998;7.614;2023-08-06T09:16:39;3.60;;;3.00;;
23670;SDS011;12012;51.998;7.614;2023-08-06T09:19:12;2.50;;;2.25;;
23670;SDS011;12012;51.998;7.614;2023-08-06T09:21:40;2.22;;;2.03;;
23670;SDS011;12012;51.998;7.614;2023-08-06T09:24:12;3.92;;;2.78;;
23670;SDS011;12012;51.998;7.614;2023-08-06T09:29:08;5.47;;;2.78;;
23670;SDS011;12012;51.998;7.614;2023-08-06T09:31:49;4.68;;;2.38;;
23670;SDS011;12012;51.998;7.614;2023-08-06T09:34:18;3.78;;;2.33;;
23670;SDS011;12012;51.998;7.614;2023-08-06T09:36:48;2.58;;;2.28;;
23670;SDS011;12012;51.998;7.614;2023-08-06T09:39:16;4.37;;;2.53;;
23670;SDS011;12012;51.998;7.614;2023-08-06T09:41:46;2.60;;;2.20;;
23670;SDS011;12012;51.998;7.614;2023-08-06T09:44:19;2.40;;;2.20;;
23670;SDS011;12012;51.998;7.614;2023-08-06T09:46:49;2.00;;;1.80;;
23670;SDS011;12012;51.998;7.614;2023-08-06T09:49:17;2.75;;;2.08;;
23670;SDS011;12012;51.998;7.614;2023-08-06T09:51:44;3.33;;;2.30;;
23670;SDS011;12012;51.998;7.614;2023-08-06T09:54:13;2.50;;;2.25;;
23670;SDS011;12012;51.998;7.614;2023-08-06T09:56:41;7.53;;;2.35;;
23670;SDS011;12012;51.998;7.614;2023-08-06T09:59:07;3.63;;;2.20;;
23670;SDS011;12012;51.998;7.614;2023-08-06T10:01:34;5.45;;;2.20;;
23670;SDS011;12012;51.998;7.614;2023-08-06T10:04:03;3.72;;;2.33;;
23670;SDS011;12012;51.998;7.614;2023-08-06T10:06:31;4.38;;;2.20;;
23670;SDS011;12012;51.998;7.614;2023-08-06T10:09:00;3.63;;;2.15;;
23670;SDS011;12012;51.998;7.614;2023-08-06T10:11:25;2.40;;;2.10;;
23670;SDS011;12012;51.998;7.614;2023-08-06T10:13:54;3.13;;;2.30;;
23670;SDS011;12012;51.998;7.614;2023-08-06T10:16:42;4.00;;;2.47;;
23670;SDS011;12012;51.998;7.614;2023-08-06T10:19:09;3.80;;;2.38;;
23670;SDS011;12012;51.998;7.614;2023-08-06T10:21:39;5.72;;;2.38;;
23670;SDS011;12012;51.998;7.614;2023-08-06T10:24:07;3.90;;;2.17;;
23670;SDS011;12012;51.998;7.614;2023-08-06T10:26:35;2.05;;;1.48;;
23670;SDS011;12012;51.998;7.614;2023-08-06T10:29:01;4.20;;;2.10;;
23670;SDS011;12012;51.998;7.614;2023-08-06T10:31:53;2.95;;;2.13;;
23670;SDS011;12012;51.998;7.614;2023-08-06T10:34:22;4.15;;;1.60;;
23670;SDS011;12012;51.998;7.614;2023-08-06T10:36:48;4.80;;;1.77;;
23670;SDS011;12012;51.998;7.614;2023-08-06T10:39:14;1.73;;;1.60;;
23670;SDS011;12012;51.998;7.614;2023-08-06T10:41:40;2.20;;;1.98;;
23670;SDS011;12012;51.998;7.614;2023-08-06T10:44:08;1.70;;;1.60;;
23670;SDS011;12012;51.998;7.614;2023-08-06T10:46:34;1.88;;;1.70;;
23670;SDS011;12012;51.998;7.614;2023-08-06T10:49:00;1.73;;;1.50;;
23670;SDS011;12012;51.998;7.614;2023-08-06T10:51:26;3.60;;;1.90;;
23670;SDS011;12012;51.998;7.614;2023-08-06T10:53:52;1.50;;;1.30;;
23670;SDS011;12012;51.998;7.614;2023-08-06T10:56:22;4.25;;;1.60;;
23670;SDS011;12012;51.998;7.614;2023-08-06T10:58:50;2.30;;;1.38;;
23670;SDS011;12012;51.998;7.614;2023-08-06T11:01:16;1.83;;;1.50;;
23670;SDS011;12012;51.998;7.614;2023-08-06T11:03:43;3.40;;;1.67;;
23670;SDS011;12012;51.998;7.614;2023-08-06T11:06:11;2.08;;;1.52;;
23670;SDS011;12012;51.998;7.614;2023-08-06T11:08:46;2.85;;;1.40;;
23670;SDS011;12012;51.998;7.614;2023-08-06T11:11:17;3.03;;;1.83;;
23670;SDS011;12012;51.998;7.614;2023-08-06T11:13:43;2.20;;;1.80;;
23670;SDS011;12012;51.998;7.614;2023-08-06T11:16:12;2.45;;;1.60;;
23670;SDS011;12012;51.998;7.614;2023-08-06T11:18:40;2.20;;;1.70;;
23670;SDS011;12012;51.998;7.614;2023-08-06T11:21:07;1.85;;;1.73;;
23670;SDS011;12012;51.998;7.614;2023-08-06T11:23:32;3.63;;;1.80;;
23670;SDS011;12012;51.998;7.614;2023-08-06T11:25:59;4.03;;;2.15;;
23670;SDS011;12012;51.998;7.614;2023-08-06T11:28:25;1.88;;;1.77;;
23670;SDS011;12012;51.998;7.614;2023-08-06T11:30:51;2.67;;;2.35;;
23670;SDS011;12012;51.998;7.614;2023-08-06T11:33:21;2.45;;;1.65;;
23670;SDS011;12012;51.998;7.614;2023-08-06T11:35:56;1.90;;;1.75;;
23670;SDS011;12012;51.998;7.614;2023-08-06T11:38:26;3.60;;;2.10;;
23670;SDS011;12012;51.998;7.614;2023-08-06T11:40:53;2.47;;;1.88;;
23670;SDS011;12012;51.998;7.614;2023-08-06T11:43:19;3.60;;;2.13;;
23670;SDS011;12012;51.998;7.614;2023-08-06T11:45:47;4.55;;;2.00;;
23670;SDS011;12012;51.998;7.614;2023-08-06T11:48:13;4.60;;;1.92;;
23670;SDS011;12012;51.998;7.614;2023-08-06T11:50:39;2.28;;;2.00;;
23670;SDS011;12012;51.998;7.614;2023-08-06T11:53:04;1.75;;;1.65;;
23670;SDS011;12012;51.998;7.614;2023-08-06T11:55:30;2.00;;;1.80;;
23670;SDS011;12012;51.998;7.614;2023-08-06T11:57:57;2.30;;;2.10;;
23670;SDS011;12012;51.998;7.614;2023-08-06T12:00:23;2.72;;;2.08;;
23670;SDS011;12012;51.998;7.614;2023-08-06T12:02:49;2.78;;;1.85;;
23670;SDS011;12012;51.998;7.614;2023-08-06T12:05:17;2.47;;;2.17;;
23670;SDS011;12012;51.998;7.614;2023-08-06T12:07:54;2.20;;;2.00;;
23670;SDS011;12012;51.998;7.614;2023-08-06T12:10:21;3.30;;;2.20;;
23670;SDS011;12012;51.998;7.614;2023-08-06T12:12:49;3.70;;;2.30;;
23670;SDS011;12012;51.998;7.614;2023-08-06T12:15:15;2.13;;;1.90;;
23670;SDS011;12012;51.998;7.614;2023-08-06T12:17:41;2.10;;;1.90;;
23670;SDS011;12012;51.998;7.614;2023-08-06T12:20:08;2.13;;;1.95;;
23670;SDS011;12012;51.998;7.614;2023-08-06T12:22:34;3.95;;;1.92;;
23670;SDS011;12012;51.998;7.614;2023-08-06T12:25:07;3.10;;;2.00;;
23670;SDS011;12012;51.998;7.614;2023-08-06T12:27:38;3.38;;;2.22;;
23670;SDS011;12012;51.998;7.614;2023-08-06T12:30:05;3.15;;;2.00;;
23670;SDS011;12012;51.998;7.614;2023-08-06T12:32:31;2.63;;;1.90;;
23670;SDS011;12012;51.998;7.614;2023-08-06T12:34:57;3.10;;;1.95;;
23670;SDS011;12012;51.998;7.614;2023-08-06T12:37:24;2.47;;;1.80;;
23670;SDS011;12012;51.998;7.614;2023-08-06T12:39:50;2.10;;;1.83;;
23670;SDS011;12012;51.998;7.614;2023-08-06T12:42:15;2.60;;;1.80;;
23670;SDS011;12012;51.998;7.614;2023-08-06T12:44:41;4.13;;;1.90;;
23670;SDS011;12012;51.998;7.614;2023-08-06T12:47:07;2.90;;;2.10;;
23670;SDS011;12012;51.998;7.614;2023-08-06T12:49:33;5.10;;;2.70;;
23670;SDS011;12012;51.998;7.614;2023-08-06T12:51:58;3.35;;;2.08;;
23670;SDS011;12012;51.998;7.614;2023-08-06T12:54:27;5.22;;;2.00;;
23670;SDS011;12012;51.998;7.614;2023-08-06T12:56:53;2.65;;;2.10;;
23670;SDS011;12012;51.998;7.614;2023-08-06T12:59:19;5.38;;;2.22;;
23670;SDS011;12012;51.998;7.614;2023-08-06T13:01:45;2.00;;;1.73;;
23670;SDS011;12012;51.998;7.614;2023-08-06T13:04:11;3.22;;;2.08;;
23670;SDS011;12012;51.998;7.614;2023-08-06T13:06:37;2.95;;;1.63;;
23670;SDS011;12012;51.998;7.614;2023-08-06T13:09:04;1.40;;;1.30;;
23670;SDS011;12012;51.998;7.614;2023-08-06T13:11:32;3.67;;;1.58;;
23670;SDS011;12012;51.998;7.614;2023-08-06T13:14:05;2.60;;;1.70;;
23670;SDS011;12012;51.998;7.614;2023-08-06T13:16:32;2.05;;;1.70;;
23670;SDS011;12012;51.998;7.614;2023-08-06T13:18:58;3.35;;;1.80;;
23670;SDS011;12012;51.998;7.614;2023-08-06T13:21:23;2.33;;;1.73;;
23670;SDS011;12012;51.998;7.614;2023-08-06T13:23:49;2.58;;;1.70;;
23670;SDS011;12012;51.998;7.614;2023-08-06T13:26:14;3.05;;;2.20;;
23670;SDS011;12012;51.998;7.614;2023-08-06T13:28:43;2.00;;;1.90;;
23670;SDS011;12012;51.998;7.614;2023-08-06T13:31:09;2.38;;;1.63;;
23670;SDS011;12012;51.998;7.614;2023-08-06T13:33:35;1.98;;;1.77;;
23670;SDS011;12012;51.998;7.614;2023-08-06T13:36:00;1.80;;;1.70;;
23670;SDS011;12012;51.998;7.614;2023-08-06T13:38:26;3.53;;;1.70;;
23670;SDS011;12012;51.998;7.614;2023-08-06T13:40:51;2.63;;;2.13;;
23670;SDS011;12012;51.998;7.614;2023-08-06T13:43:17;2.95;;;1.73;;
23670;SDS011;12012;51.998;7.614;2023-08-06T13:45:44;3.25;;;1.63;;
23670;SDS011;12012;51.998;7.614;2023-08-06T13:48:09;3.45;;;1.88;;
23670;SDS011;12012;51.998;7.614;2023-08-06T13:50:35;3.40;;;1.85;;
23670;SDS011;12012;51.998;7.614;2023-08-06T13:53:02;3.60;;;1.92;;
23670;SDS011;12012;51.998;7.614;2023-08-06T13:55:28;3.75;;;2.05;;
23670;SDS011;12012;51.998;7.614;2023-08-06T13:57:53;2.10;;;1.90;;
23670;SDS011;12012;51.998;7.614;2023-08-06T14:00:19;1.85;;;1.75;;
23670;SDS011;12012;51.998;7.614;2023-08-06T14:02:45;4.00;;;2.17;;
23670;SDS011;12012;51.998;7.614;2023-08-06T14:05:10;2.08;;;1.95;;
23670;SDS011;12012;51.998;7.614;2023-08-06T14:07:36;2.58;;;1.90;;
23670;SDS011;12012;51.998;7.614;2023-08-06T14:10:01;2.45;;;1.85;;
23670;SDS011;12012;51.998;7.614;2023-08-06T14:12:27;3.22;;;2.05;;
23670;SDS011;12012;51.998;7.614;2023-08-06T14:14:53;3.97;;;2.00;;
23670;SDS011;12012;51.998;7.614;2023-08-06T14:17:18;3.58;;;2.10;;
23670;SDS011;12012;51.998;7.614;2023-08-06T14:19:44;3.65;;;1.90;;
23670;SDS011;12012;51.998;7.614;2023-08-06T14:22:10;3.20;;;2.30;;
23670;SDS011;12012;51.998;7.614;2023-08-06T14:24:35;2.20;;;2.00;;
23670;SDS011;12012;51.998;7.614;2023-08-06T14:27:01;3.00;;;1.60;;
23670;SDS011;12012;51.998;7.614;2023-08-06T14:29:29;2.90;;;1.80;;
23670;SDS011;12012;51.998;7.614;2023-08-06T14:31:54;2.08;;;1.90;;
23670;SDS011;12012;51.998;7.614;2023-08-06T14:34:20;1.60;;;1.50;;
23670;SDS011;12012;51.998;7.614;2023-08-06T14:36:46;3.25;;;1.58;;
23670;SDS011;12012;51.998;7.614;2023-08-06T14:39:11;3.22;;;1.60;;
23670;SDS011;12012;51.998;7.614;2023-08-06T14:41:37;4.57;;;2.03;;
23670;SDS011;12012;51.998;7.614;2023-08-06T14:44:02;2.97;;;1.98;;
23670;SDS011;12012;51.998;7.614;2023-08-06T14:46:28;4.38;;;2.20;;
23670;SDS011;12012;51.998;7.614;2023-08-06T14:48:53;3.20;;;2.28;;
23670;SDS011;12012;51.998;7.614;2023-08-06T14:51:19;6.55;;;2.70;;
23670;SDS011;12012;51.998;7.614;2023-08-06T14:53:45;7.20;;;3.10;;
23670;SDS011;12012;51.998;7.614;2023-08-06T14:56:11;4.35;;;2.70;;
23670;SDS011;12012;51.998;7.614;2023-08-06T14:58:36;6.60;;;2.78;;